Time;durP1;ratioP1;P1;durP2;ratioP2;P2;SDS_P1;SDS_P2;PMS_P1;PMS_P2;Temp;Humidity;BMP_temperature;BMP_pressure;BME280_temperature;BME280_humidity;BME280_pressure;Samples;Min_cycle;Max_cycle;Signal;HPM_P1;HPM_P2
2023/11/27 00:01:27;;;;;;;8.10;6.80;;;;;;;2.18;52.04;97027.20;109287;1254;71398;-57
2023/11/27 00:03:54;;;;;;;7.50;6.70;;;;;;;1.98;52.89;97031.80;109175;1254;59612;-59
2023/11/27 00:06:22;;;;;;;6.70;6.00;;;;;;;1.98;52.79;97023.54;109452;1254;58990;-57
2023/11/27 00:08:50;;;;;;;8.50;6.10;;;;;;;2.05;52.67;97036.80;109491;1252;73658;-58
2023/11/27 00:11:17;;;;;;;9.40;6.50;;;;;;;2.43;51.41;97033.38;109195;1253;68363;-58
2023/11/27 00:13:44;;;;;;;6.50;5.90;;;;;;;2.23;51.91;97029.48;109481;1254;72453;-57
2023/11/27 00:16:14;;;;;;;7.80;6.70;;;;;;;1.98;52.82;97013.91;109447;1254;60834;-58
2023/11/27 00:18:46;;;;;;;7.50;5.80;;;;;;;2.03;52.70;97017.58;109352;1254;59054;-57
2023/11/27 00:21:14;;;;;;;7.10;6.40;;;;;;;2.18;52.07;97030.16;109485;1253;73475;-58
2023/11/27 00:23:41;;;;;;;8.00;6.70;;;;;;;2.02;52.31;97018.83;109457;1254;67110;-58
2023/11/27 00:26:09;;;;;;;7.20;6.50;;;;;;;2.08;52.28;97017.59;109475;1252;71381;-60
2023/11/27 00:28:39;;;;;;;9.20;7.70;;;;;;;2.14;52.00;97021.10;109523;1252;60829;-59
2023/11/27 00:31:09;;;;;;;9.80;7.00;;;;;;;1.98;52.57;97018.52;109431;1254;59009;-60
2023/11/27 00:33:37;;;;;;;7.80;6.30;;;;;;;2.05;52.27;97030.97;109206;1254;74642;-58
2023/11/27 00:36:05;;;;;;;9.70;5.80;;;;;;;2.02;52.35;97020.86;109443;1254;68673;-58
2023/11/27 00:38:32;;;;;;;7.40;6.60;;;;;;;2.17;51.67;97014.54;109163;1254;71419;-59
2023/11/27 00:41:00;;;;;;;6.70;6.00;;;;;;;1.98;52.15;97003.75;109166;1253;61613;-59
2023/11/27 00:43:29;;;;;;;7.90;6.20;;;;;;;1.90;52.43;97006.69;109404;1254;58896;-62
2023/11/27 00:45:57;;;;;;;8.60;6.50;;;;;;;2.03;52.37;97016.04;109284;1253;73378;-60
2023/11/27 00:48:24;;;;;;;6.50;5.90;;;;;;;2.33;51.28;97012.51;109443;1254;68392;-61
2023/11/27 00:50:52;;;;;;;7.60;6.80;;;;;;;2.27;51.38;97018.38;109485;1254;72656;-60
2023/11/27 00:53:20;;;;;;;7.80;6.50;;;;;;;2.24;51.71;97016.35;109538;1252;61021;-59
2023/11/27 00:55:47;;;;;;;9.00;6.50;;;;;;;2.33;51.51;97016.27;109446;1254;58864;-61
2023/11/27 00:58:15;;;;;;;10.10;6.40;;;;;;;2.00;52.25;96999.62;109412;1252;74684;-60
2023/11/27 01:00:44;;;;;;;9.10;5.90;;;;;;;2.11;52.09;97014.54;109456;1254;67285;-60
2023/11/27 01:03:11;;;;;;;8.70;6.70;;;;;;;2.36;51.06;97013.57;109314;1254;71465;-60
2023/11/27 01:05:39;;;;;;;8.90;6.70;;;;;;;2.12;52.18;97022.95;109458;1254;61644;-59
2023/11/27 01:08:06;;;;;;;7.40;6.70;;;;;;;2.20;51.45;97017.14;109446;1257;60011;-61
2023/11/27 01:10:34;;;;;;;8.50;6.40;;;;;;;1.77;53.10;97013.30;109283;1253;74617;-60
2023/11/27 01:13:01;;;;;;;14.30;11.20;;;;;;;2.02;52.47;97005.66;109467;1258;69141;-58
2023/11/27 01:15:29;;;;;;;9.60;8.60;;;;;;;2.07;52.43;97018.34;109447;1252;72633;-59
2023/11/27 01:17:56;;;;;;;17.30;13.70;;;;;;;2.00;53.12;97017.09;109461;1254;60359;-61
2023/11/27 01:20:25;;;;;;;10.80;8.70;;;;;;;1.62;54.25;97010.39;109290;1253;60003;-59
2023/11/27 01:22:53;;;;;;;8.50;7.60;;;;;;;1.66;54.49;97010.24;109498;1254;74658;-60
2023/11/27 01:25:21;;;;;;;12.50;10.40;;;;;;;2.07;53.16;97032.61;109445;1254;67449;-59
2023/11/27 01:27:48;;;;;;;39.50;23.90;;;;;;;1.82;53.67;97015.44;109328;1254;72446;-59
2023/11/27 01:30:19;;;;;;;48.50;23.60;;;;;;;1.79;54.08;97009.67;109469;1254;61634;-60
2023/11/27 01:32:47;;;;;;;27.20;16.50;;;;;;;1.79;54.19;97017.08;109586;1254;60214;-59
2023/11/27 01:35:14;;;;;;;15.50;11.20;;;;;;;1.98;53.58;97017.92;109646;1256;73659;-59
2023/11/27 01:37:42;;;;;;;36.90;20.70;;;;;;;2.08;53.59;97028.65;109542;1254;68301;-60
2023/11/27 01:40:10;;;;;;;9.10;7.00;;;;;;;2.33;52.59;97033.91;109573;1252;72000;-59
2023/11/27 01:42:38;;;;;;;18.10;13.80;;;;;;;2.60;51.66;97034.84;109441;1254;61728;-60
2023/11/27 01:45:06;;;;;;;12.90;11.50;;;;;;;2.24;52.91;97033.51;109171;1253;59981;-60
2023/11/27 01:47:33;;;;;;;11.60;9.90;;;;;;;1.80;54.66;97029.13;109592;1254;74611;-59
2023/11/27 01:50:01;;;;;;;10.30;7.20;;;;;;;1.95;54.33;97025.91;109439;1253;68390;-59
2023/11/27 01:52:28;;;;;;;10.10;9.10;;;;;;;2.09;53.98;97025.54;109337;1254;72671;-59
2023/11/27 01:54:57;;;;;;;10.40;8.00;;;;;;;2.15;53.65;97027.45;109461;1254;61667;-59
2023/11/27 01:57:24;;;;;;;8.40;7.30;;;;;;;2.10;53.47;97024.52;109452;1254;58906;-59
2023/11/27 01:59:53;;;;;;;11.10;7.60;;;;;;;2.06;53.97;97027.95;109371;1252;74703;-58
2023/11/27 02:02:21;;;;;;;9.30;8.00;;;;;;;2.25;53.37;97031.82;109438;1252;67119;-58
2023/11/27 02:04:48;;;;;;;9.90;8.40;;;;;;;2.19;53.52;97028.53;109427;1254;72672;-59
2023/11/27 02:07:16;;;;;;;8.20;6.50;;;;;;;2.07;53.93;97029.71;109469;1254;60526;-59
2023/11/27 02:09:43;;;;;;;8.00;5.80;;;;;;;2.27;53.25;97026.85;109471;1254;59946;-58
2023/11/27 02:12:11;;;;;;;9.30;7.30;;;;;;;2.02;54.04;97023.02;109487;1252;73505;-59
2023/11/27 02:14:38;;;;;;;8.10;6.90;;;;;;;2.04;54.59;97030.77;109234;1257;68482;-58
2023/11/27 02:17:06;;;;;;;8.40;6.70;;;;;;;2.06;54.10;97029.38;109125;1256;71446;-60
2023/11/27 02:19:33;;;;;;;9.10;7.80;;;;;;;2.27;53.31;97033.30;109117;1257;61630;-59
2023/11/27 02:22:01;;;;;;;8.10;7.10;;;;;;;2.24;53.69;97035.84;109091;1257;60019;-62
2023/11/27 02:24:28;;;;;;;8.00;7.20;;;;;;;2.26;53.59;97025.31;108873;1264;74684;-60
2023/11/27 02:26:56;;;;;;;9.50;7.40;;;;;;;2.00;54.31;97026.78;108834;1260;69168;-61
2023/11/27 02:29:25;;;;;;;8.40;6.80;;;;;;;2.32;53.19;97019.77;108822;1260;72452;-62
2023/11/27 02:31:52;;;;;;;9.10;7.80;;;;;;;2.19;53.71;97035.56;108771;1260;60358;-60
2023/11/27 02:34:20;;;;;;;8.60;7.50;;;;;;;2.22;53.64;97038.11;108872;1260;59032;-61
2023/11/27 02:36:48;;;;;;;8.30;7.40;;;;;;;2.55;52.55;97035.09;108831;1260;74603;-59
2023/11/27 02:39:16;;;;;;;10.40;8.50;;;;;;;2.11;54.27;97037.39;108822;1260;67620;-59
2023/11/27 02:41:44;;;;;;;10.00;7.40;;;;;;;1.72;55.24;97028.52;108842;1260;72669;-59
2023/11/27 02:44:11;;;;;;;9.30;8.10;;;;;;;1.88;54.84;97033.36;108825;1260;61705;-61
2023/11/27 02:46:39;;;;;;;10.80;7.10;;;;;;;1.86;55.32;97035.08;108924;1257;58923;-61
2023/11/27 02:49:08;;;;;;;9.80;6.90;;;;;;;2.22;53.71;97043.30;109046;1260;74601;-59
2023/11/27 02:51:42;;;;;;;10.10;7.70;;;;;;;2.04;54.38;97038.44;109054;1257;68336;-59
2023/11/27 02:54:10;;;;;;;14.80;11.60;;;;;;;1.95;54.62;97037.30;109094;1257;71699;-58
2023/11/27 02:56:37;;;;;;;15.00;13.00;;;;;;;2.23;53.58;97038.80;109221;1254;60937;-61
2023/11/27 02:59:05;;;;;;;11.20;10.00;;;;;;;2.14;53.94;97044.65;109459;1253;60031;-60
2023/11/27 03:01:33;;;;;;;12.10;10.60;;;;;;;2.11;54.12;97047.87;109618;1253;73135;-59
2023/11/27 03:04:00;;;;;;;15.10;12.40;;;;;;;2.13;53.87;97042.31;109588;1254;68675;-58
2023/11/27 03:06:28;;;;;;;12.00;8.60;;;;;;;2.19;53.62;97056.05;109323;1253;73018;-64
2023/11/27 03:08:55;;;;;;;13.90;11.30;;;;;;;2.08;53.84;97052.46;109578;1253;61644;-59
2023/11/27 03:11:23;;;;;;;10.70;9.60;;;;;;;1.90;54.73;97055.93;109217;1254;59102;-61
2023/11/27 03:13:50;;;;;;;11.20;8.50;;;;;;;2.32;53.07;97057.40;109582;1253;74634;-61
2023/11/27 03:16:18;;;;;;;9.90;8.90;;;;;;;2.23;53.54;97057.38;109464;1253;67387;-59
2023/11/27 03:18:46;;;;;;;9.10;8.20;;;;;;;1.99;54.28;97066.55;109429;1254;71392;-62
2023/11/27 03:21:20;;;;;;;11.30;8.80;;;;;;;1.96;54.28;97046.02;109452;1254;61627;-59
2023/11/27 03:23:48;;;;;;;9.00;8.00;;;;;;;2.06;54.48;97052.35;109415;1253;60197;-61
2023/11/27 03:26:17;;;;;;;10.70;7.50;;;;;;;2.22;53.81;97065.48;109464;1254;74581;-60
2023/11/27 03:28:44;;;;;;;8.60;6.50;;;;;;;2.27;53.51;97073.27;109585;1254;68433;-60
2023/11/27 03:31:12;;;;;;;9.40;7.60;;;;;;;2.01;54.20;97065.94;109467;1254;72446;-59
2023/11/27 03:33:41;;;;;;;10.00;7.60;;;;;;;2.00;54.33;97068.37;109302;1253;60359;-61
2023/11/27 03:36:09;;;;;;;8.20;7.10;;;;;;;1.95;54.51;97068.52;109584;1253;59967;-61
2023/11/27 03:38:36;;;;;;;8.30;7.00;;;;;;;2.04;54.11;97068.91;109497;1254;74720;-61
2023/11/27 03:41:04;;;;;;;11.60;10.00;;;;;;;1.88;54.81;97072.44;109480;1254;67741;-59
2023/11/27 03:43:32;;;;;;;8.60;7.80;;;;;;;1.80;54.88;97072.83;109562;1253;72798;-62
2023/11/27 03:46:00;;;;;;;10.30;7.90;;;;;;;2.05;54.31;97074.22;109470;1253;61755;-60
2023/11/27 03:48:27;;;;;;;11.00;8.30;;;;;;;1.94;54.36;97065.91;109596;1254;58896;-58
2023/11/27 03:50:55;;;;;;;10.80;8.80;;;;;;;1.92;54.50;97071.98;109133;1254;73468;-60
2023/11/27 03:53:22;;;;;;;9.00;8.00;;;;;;;1.90;54.80;97065.63;109407;1254;67271;-61
2023/11/27 03:55:50;;;;;;;30.00;21.00;;;;;;;1.81;55.20;97058.83;109445;1254;71384;-62
2023/11/27 03:58:17;;;;;;;18.00;14.30;;;;;;;1.95;55.25;97070.15;109450;1254;61605;-60
2023/11/27 04:00:45;;;;;;;21.90;14.90;;;;;;;1.92;55.08;97072.72;109431;1254;58930;-57
2023/11/27 04:03:13;;;;;;;30.30;18.20;;;;;;;1.66;56.19;97055.36;109433;1253;74764;-58
2023/11/27 04:05:41;;;;;;;13.60;11.60;;;;;;;2.23;54.17;97076.27;109145;1260;68364;-59
2023/11/27 04:08:08;;;;;;;14.90;8.80;;;;;;;1.89;55.36;97080.75;109282;1254;72441;-61
2023/11/27 04:10:36;;;;;;;15.00;12.20;;;;;;;1.60;56.35;97074.32;109454;1254;61646;-61
2023/11/27 04:13:04;;;;;;;13.60;9.10;;;;;;;1.93;55.59;97076.13;109299;1254;59939;-62
2023/11/27 04:15:32;;;;;;;17.40;11.90;;;;;;;2.10;54.97;97078.02;109432;1254;73226;-59
2023/11/27 04:18:00;;;;;;;10.90;9.50;;;;;;;1.96;55.57;97083.76;109428;1253;67085;-57
2023/11/27 04:20:28;;;;;;;11.10;7.80;;;;;;;1.67;56.59;97074.92;109405;1254;72739;-59
2023/11/27 04:22:56;;;;;;;9.70;8.20;;;;;;;1.51;57.45;97076.48;109221;1253;60549;-59
2023/11/27 04:25:23;;;;;;;11.30;8.90;;;;;;;1.89;56.10;97081.70;109418;1253;59093;-60
2023/11/27 04:27:51;;;;;;;10.60;8.70;;;;;;;1.82;56.34;97078.61;109452;1253;72703;-61
2023/11/27 04:30:18;;;;;;;10.60;8.40;;;;;;;1.72;56.49;97084.21;109373;1254;67512;-61
2023/11/27 04:32:46;;;;;;;11.80;9.40;;;;;;;1.57;57.12;97082.08;109417;1253;72482;-60
2023/11/27 04:35:13;;;;;;;10.90;7.90;;;;;;;1.72;56.67;97091.89;109446;1253;62105;-59
2023/11/27 04:37:41;;;;;;;9.50;8.50;;;;;;;1.90;55.92;97083.04;109439;1253;60052;-61
2023/11/27 04:40:10;;;;;;;11.00;8.80;;;;;;;1.49;57.22;97089.27;109439;1253;74604;-62
2023/11/27 04:42:38;;;;;;;10.70;9.00;;;;;;;1.64;56.70;97090.83;109444;1254;68445;-62
2023/11/27 04:45:07;;;;;;;11.30;9.00;;;;;;;1.82;56.18;97101.77;109575;1254;72445;-62
2023/11/27 04:47:35;;;;;;;;;;;;;;;1.84;55.84;97093.54;109438;1252;61706;-64
2023/11/27 04:50:03;;;;;;;;;;;;;;;1.90;55.50;97098.11;109527;1254;58908;-62
2023/11/27 04:52:30;;;;;;;14.50;8.90;;;;;;;1.79;55.76;97094.89;109482;1253;74661;-65
2023/11/27 07:21:09;;;;;;;12.70;10.30;;;;;;;-4.18;100.00;97184.49;103367;1286;616327;-59
2023/11/27 07:23:39;;;;;;;19.90;10.80;;;;;;;-3.09;98.58;97195.02;104635;1270;61929;-63
2023/11/27 07:26:10;;;;;;;36.10;10.40;;;;;;;-2.75;94.91;97197.87;104461;1267;60703;-60
2023/11/27 07:28:40;;;;;;;17.90;10.60;;;;;;;-2.27;90.98;97194.02;105699;1257;72243;-59
2023/11/27 07:31:09;;;;;;;18.00;9.00;;;;;;;-2.21;89.28;97183.08;105698;1254;68836;-60
2023/11/27 07:33:38;;;;;;;20.00;10.70;;;;;;;-1.93;86.96;97191.98;105600;1256;146311;-61
2023/11/27 07:36:09;;;;;;;20.10;12.40;;;;;;;-1.82;85.72;97188.95;105959;1254;62003;-59
2023/11/27 07:38:36;;;;;;;11.70;10.40;;;;;;;-1.74;83.98;97191.30;105751;1261;59991;-58
2023/11/27 07:41:07;;;;;;;23.00;12.10;;;;;;;-1.79;84.24;97189.85;105290;1266;72825;-59
2023/11/27 07:43:34;;;;;;;34.30;14.10;;;;;;;-1.59;82.55;97195.98;105952;1254;67601;-60
2023/11/27 07:46:06;;;;;;;14.60;12.50;;;;;;;-1.38;80.80;97201.38;105668;1260;72851;-59
2023/11/27 07:48:33;;;;;;;31.30;17.00;;;;;;;-1.48;81.33;97205.56;105936;1254;61761;-60
2023/11/27 07:51:07;;;;;;;29.10;19.10;;;;;;;-1.52;80.30;97196.05;105786;1253;59963;-61
2023/11/27 07:53:34;;;;;;;19.70;13.10;;;;;;;-1.37;79.84;97213.23;105691;1255;72390;-59
2023/11/27 07:56:01;;;;;;;14.70;10.00;;;;;;;-1.10;77.44;97210.95;105518;1254;68616;-60
2023/11/27 07:58:28;;;;;;;13.10;11.30;;;;;;;-1.28;77.92;97216.15;105614;1256;72808;-62
2023/11/27 08:00:55;;;;;;;12.40;10.40;;;;;;;-1.03;77.65;97225.62;105886;1256;61958;-64
2023/11/27 08:03:22;;;;;;;10.90;9.00;;;;;;;-0.70;75.22;97230.61;105922;1254;60298;-63
2023/11/27 08:05:50;;;;;;;11.30;8.70;;;;;;;-1.04;75.61;97221.27;103721;1256;1003502;-61
2023/11/27 08:08:17;;;;;;;16.00;9.30;;;;;;;-0.89;75.45;97229.91;105694;1254;69014;-61
2023/11/27 08:10:45;;;;;;;26.30;10.60;;;;;;;-0.97;75.32;97228.70;105255;1257;73193;-59
2023/11/27 08:13:12;;;;;;;10.00;9.00;;;;;;;-0.88;74.19;97217.08;105706;1256;61660;-59
2023/11/27 08:15:40;;;;;;;14.00;8.60;;;;;;;-1.00;74.20;97240.30;104472;1253;1003785;-62
2023/11/27 08:18:06;;;;;;;10.00;8.40;;;;;;;-0.62;72.66;97236.91;105979;1257;72992;-65
2023/11/27 08:20:35;;;;;;;11.20;8.40;;;;;;;-0.90;74.00;97226.67;105564;1259;70234;-61
2023/11/27 08:23:02;;;;;;;;;;;;;;;-0.56;72.06;97235.64;103365;1254;1003839;-63
2023/11/27 08:25:29;;;;;;;17.30;9.70;;;;;;;-0.52;72.00;97234.08;105949;1253;61999;-63
2023/11/27 08:27:57;;;;;;;21.90;9.50;;;;;;;-0.63;71.75;97231.71;105953;1254;59814;-60
2023/11/27 08:30:24;;;;;;;16.00;10.80;;;;;;;-0.67;72.10;97237.92;105683;1256;72236;-63
2023/11/27 08:32:51;;;;;;;13.70;9.80;;;;;;;-0.80;72.05;97232.86;105563;1254;68927;-61
2023/11/27 08:35:18;;;;;;;20.60;12.20;;;;;;;-0.74;72.28;97256.35;105668;1260;72615;-61
2023/11/27 08:37:45;;;;;;;76.20;37.40;;;;;;;-0.42;69.65;97253.95;105490;1259;61961;-59
2023/11/27 08:40:12;;;;;;;62.40;32.50;;;;;;;-0.29;69.01;97254.82;105375;1257;60699;-59
2023/11/27 08:42:39;;;;;;;73.30;41.20;;;;;;;-0.32;69.39;97253.20;105297;1261;73565;-62
2023/11/27 08:45:10;;;;;;;98.00;59.20;;;;;;;-0.36;69.59;97256.61;105652;1257;69131;-61
2023/11/27 08:47:40;;;;;;;47.40;32.50;;;;;;;-0.67;70.11;97232.33;105547;1261;72625;-64
2023/11/27 08:50:09;;;;;;;169.80;66.80;;;;;;;-0.39;68.28;97239.81;105380;1257;63459;-60
2023/11/27 08:52:36;;;;;;;143.90;54.60;;;;;;;-0.42;68.14;97212.02;105514;1254;60269;-59
2023/11/27 08:55:07;;;;;;;153.50;60.10;;;;;;;-0.32;67.99;97227.73;105564;1254;72884;-60
2023/11/27 08:57:34;;;;;;;99.00;41.20;;;;;;;-0.33;67.52;97217.48;105499;1257;69229;-62
2023/11/27 09:00:05;;;;;;;27.50;16.80;;;;;;;0.04;66.27;97226.51;105742;1259;72668;-60
2023/11/27 09:02:33;;;;;;;17.30;11.10;;;;;;;-0.00;66.35;97235.69;105929;1256;62028;-65
2023/11/27 09:05:00;;;;;;;84.80;36.30;;;;;;;0.16;64.79;97240.14;105676;1253;62408;-60
2023/11/27 09:07:27;;;;;;;161.30;69.00;;;;;;;0.18;64.37;97233.72;105580;1261;73202;-60
2023/11/27 09:09:53;;;;;;;45.50;20.00;;;;;;;0.23;64.21;97231.48;105971;1256;68623;-59
2023/11/27 09:12:20;;;;;;;91.60;40.70;;;;;;;0.29;63.94;97238.08;105923;1257;73532;-60
2023/11/27 09:14:47;;;;;;;23.60;16.50;;;;;;;0.37;63.62;97217.66;105936;1253;61879;-62
2023/11/27 09:17:14;;;;;;;29.80;20.40;;;;;;;0.58;62.69;97241.66;105934;1255;61102;-60
2023/11/27 09:19:41;;;;;;;19.80;12.40;;;;;;;0.66;61.67;97236.44;105607;1260;73571;-61
2023/11/27 09:22:08;;;;;;;16.40;10.60;;;;;;;0.72;61.62;97245.06;105552;1255;68895;-61
2023/11/27 09:24:38;;;;;;;15.50;10.40;;;;;;;0.93;60.51;97245.93;105831;1254;72522;-61
2023/11/27 09:27:06;;;;;;;15.80;9.20;;;;;;;0.69;60.61;97251.95;105755;1253;62185;-58
2023/11/27 09:29:33;;;;;;;19.40;11.00;;;;;;;0.55;61.43;97239.11;105642;1254;60578;-58
2023/11/27 09:32:04;;;;;;;15.40;12.10;;;;;;;0.67;60.75;97235.75;105698;1257;73642;-60
2023/11/27 09:34:31;;;;;;;43.20;20.10;;;;;;;0.84;60.09;97243.77;105715;1254;68765;-60
2023/11/27 09:36:58;;;;;;;44.20;19.70;;;;;;;1.06;58.79;97229.63;105970;1253;72804;-60
2023/11/27 09:39:31;;;;;;;47.10;22.70;;;;;;;1.17;57.33;97233.54;105925;1254;61922;-60
2023/11/27 09:41:58;;;;;;;49.70;27.20;;;;;;;1.06;57.75;97241.83;105687;1254;60185;-59
2023/11/27 09:44:25;;;;;;;61.10;24.90;;;;;;;1.09;57.13;97223.58;105923;1255;74235;-59
2023/11/27 09:46:56;;;;;;;41.20;20.60;;;;;;;1.50;55.68;97249.60;105707;1253;70703;-59
2023/11/27 09:49:23;;;;;;;85.30;40.10;;;;;;;1.34;55.91;97240.91;105730;1254;73271;-60
2023/11/27 09:51:52;;;;;;;62.30;28.50;;;;;;;1.72;54.74;97259.20;105298;1253;61382;-62
2023/11/27 09:54:23;;;;;;;74.90;29.60;;;;;;;1.94;53.34;97262.43;105791;1253;59497;-61
2023/11/27 09:56:51;;;;;;;164.70;64.00;;;;;;;1.81;52.75;97251.17;105760;1259;73255;-62
2023/11/27 09:59:20;;;;;;;193.10;71.10;;;;;;;1.76;53.51;97260.85;105558;1253;68510;-59
2023/11/27 10:01:47;;;;;;;;;;;;;;;2.54;51.32;97268.64;105716;1254;72653;-59
2023/11/27 10:04:15;;;;;;;72.30;31.10;;;;;;;2.37;50.74;97269.75;105534;1253;60244;-59
2023/11/27 10:06:43;;;;;;;25.70;15.30;;;;;;;2.69;50.22;97259.45;105931;1253;60059;-60
2023/11/27 10:09:13;;;;;;;22.40;16.50;;;;;;;2.70;49.31;97255.82;105776;1254;74093;-60
2023/11/27 10:11:41;;;;;;;12.50;7.90;;;;;;;2.52;49.98;97253.84;105496;1260;68717;-59
2023/11/27 10:14:08;;;;;;;14.30;9.50;;;;;;;2.26;50.21;97253.48;105464;1260;71347;-59
2023/11/27 10:16:59;;;;;;;19.70;7.90;;;;;;;2.38;50.13;97264.97;105444;1260;60490;-59
2023/11/27 10:19:26;;;;;;;12.50;7.40;;;;;;;2.67;49.37;97266.55;105490;1259;61336;-59
2023/11/27 10:21:57;;;;;;;14.80;10.90;;;;;;;2.23;50.19;97263.77;105234;1266;73065;-66
2023/11/27 10:24:24;;;;;;;41.20;31.30;;;;;;;2.01;50.40;97271.56;105151;1260;68696;-59
2023/11/27 10:26:51;;;;;;;25.20;15.30;;;;;;;2.10;50.69;97267.73;105370;1260;72708;-65
2023/11/27 10:29:25;;;;;;;62.50;33.80;;;;;;;2.04;50.07;97273.14;105616;1253;61304;-59
2023/11/27 10:31:54;;;;;;;44.50;30.90;;;;;;;1.99;50.94;97279.61;103401;1252;1003597;-61
2023/11/27 10:34:22;;;;;;;41.80;25.30;;;;;;;1.74;51.23;97269.42;105969;1256;74992;-59
2023/11/27 10:36:57;;;;;;;15.00;12.20;;;;;;;1.54;52.38;97268.99;105913;1255;70678;-60
2023/11/27 10:39:25;;;;;;;25.30;14.10;;;;;;;2.14;51.04;97288.27;105652;1257;73270;-60
2023/11/27 10:41:55;;;;;;;62.40;30.90;;;;;;;1.87;51.18;97287.18;105897;1256;60403;-62
2023/11/27 10:44:22;;;;;;;67.80;32.00;;;;;;;1.98;51.22;97286.80;105731;1254;61025;-60
2023/11/27 10:46:50;;;;;;;36.50;19.50;;;;;;;1.95;50.47;97278.89;105720;1257;73092;-60
2023/11/27 10:49:17;;;;;;;31.60;16.30;;;;;;;1.73;51.47;97288.13;105694;1254;68593;-60
2023/11/27 10:51:47;;;;;;;23.50;11.50;;;;;;;1.32;52.26;97289.61;105555;1261;74138;-61
2023/11/27 10:54:14;;;;;;;24.50;13.10;;;;;;;1.63;51.76;97295.29;105401;1261;62845;-59
2023/11/27 10:56:44;;;;;;;36.40;20.00;;;;;;;1.98;50.79;97303.88;105835;1252;60168;-60
2023/11/27 10:59:15;;;;;;;16.40;11.60;;;;;;;1.70;50.92;97293.44;105913;1255;73245;-63
2023/11/27 11:01:43;;;;;;;17.90;11.00;;;;;;;1.53;51.40;97290.34;105638;1253;68782;-61
2023/11/27 11:04:17;;;;;;;13.00;8.90;;;;;;;1.60;51.64;97300.56;105714;1253;73454;-61
2023/11/27 11:06:47;;;;;;;11.20;8.00;;;;;;;1.81;51.12;97298.83;105686;1252;61470;-60
2023/11/27 11:09:14;;;;;;;13.80;8.10;;;;;;;1.95;50.41;97308.37;105684;1254;60261;-60
2023/11/27 11:11:42;;;;;;;10.00;7.90;;;;;;;2.02;50.10;97306.66;105574;1260;74689;-62
2023/11/27 11:14:13;;;;;;;13.80;7.80;;;;;;;1.90;50.15;97315.19;105651;1253;69177;-61
2023/11/27 11:16:47;;;;;;;7.80;6.70;;;;;;;2.42;48.92;97309.70;105939;1253;72663;-60
2023/11/27 11:19:18;;;;;;;13.60;7.90;;;;;;;2.43;48.65;97313.04;105908;1253;60410;-59
2023/11/27 11:21:56;;;;;;;8.10;7.20;;;;;;;2.41;48.47;97318.31;105949;1254;60412;-63
2023/11/27 11:24:33;;;;;;;38.60;12.30;;;;;;;2.21;48.99;97316.64;105840;1256;73774;-58
2023/11/27 11:27:34;;;;;;;9.10;8.20;;;;;;;2.87;47.55;97329.12;105688;1254;68909;-60
2023/11/27 11:30:04;;;;;;;13.00;10.40;;;;;;;2.22;48.32;97315.55;105216;1262;73407;-60
2023/11/27 11:32:32;;;;;;;15.70;12.90;;;;;;;2.34;48.13;97331.35;105129;1264;61906;-60
2023/11/27 11:35:02;;;;;;;22.10;11.20;;;;;;;2.19;48.22;97317.69;105086;1264;60554;-60
2023/11/27 11:37:32;;;;;;;16.20;11.40;;;;;;;1.99;48.83;97342.30;104842;1269;74067;-60
2023/11/27 11:39:59;;;;;;;15.50;11.90;;;;;;;2.17;48.43;97341.13;104923;1264;69027;-60
2023/11/27 11:42:32;;;;;;;14.60;10.50;;;;;;;2.32;48.17;97341.49;104779;1265;73266;-59
2023/11/27 11:45:04;;;;;;;13.20;9.00;;;;;;;2.28;48.02;97347.73;104926;1264;61279;-59
2023/11/27 11:47:34;;;;;;;17.50;9.50;;;;;;;2.17;48.48;97345.89;105051;1263;60651;-61
2023/11/27 11:50:28;;;;;;;8.50;7.70;;;;;;;2.19;47.98;97342.42;104854;1264;72522;-60
2023/11/27 11:53:03;;;;;;;17.60;10.40;;;;;;;2.39;47.69;97345.73;104999;1267;69618;-61
2023/11/27 11:55:34;;;;;;;29.20;15.60;;;;;;;2.50;46.83;97362.76;104844;1267;73388;-60
2023/11/27 11:58:19;;;;;;;25.80;11.70;;;;;;;2.20;47.51;97358.19;104603;1264;60787;-64
2023/11/27 12:00:47;;;;;;;28.90;14.90;;;;;;;1.85;48.46;97356.90;104852;1270;60463;-62
2023/11/27 12:03:18;;;;;;;10.50;6.70;;;;;;;2.07;48.20;97365.98;105125;1260;75014;-59
2023/11/27 12:05:53;;;;;;;15.70;8.60;;;;;;;2.33;47.09;97369.48;105201;1260;69542;-59
2023/11/27 12:08:23;;;;;;;11.40;7.40;;;;;;;2.20;47.44;97374.62;105841;1253;73276;-60
2023/11/27 12:10:54;;;;;;;7.90;7.00;;;;;;;2.05;48.09;97382.16;105785;1252;62675;-61
2023/11/27 12:13:23;;;;;;;16.90;8.50;;;;;;;1.98;48.41;97381.48;105184;1254;1003744;-59
2023/11/27 12:15:51;;;;;;;7.60;6.80;;;;;;;2.07;48.05;97382.55;105695;1253;74634;-61
2023/11/27 12:18:19;;;;;;;18.80;8.50;;;;;;;2.24;48.01;97379.61;105938;1253;69731;-61
2023/11/27 12:20:49;;;;;;;12.80;9.30;;;;;;;2.07;47.87;97379.84;105937;1255;70876;-59
2023/11/27 12:23:17;;;;;;;28.50;12.60;;;;;;;1.99;48.39;97375.11;105670;1252;61153;-60
2023/11/27 12:25:44;;;;;;;19.80;15.50;;;;;;;2.23;47.85;97377.27;105779;1253;60544;-60
2023/11/27 12:28:12;;;;;;;26.70;20.60;;;;;;;2.18;47.65;97379.09;105665;1256;74150;-61
2023/11/27 12:30:40;;;;;;;17.10;14.30;;;;;;;1.77;48.45;97371.48;105925;1253;69558;-61
2023/11/27 12:33:07;;;;;;;16.20;14.40;;;;;;;1.61;48.92;97371.05;105943;1255;73481;-59
2023/11/27 12:35:34;;;;;;;25.70;21.20;;;;;;;1.38;49.47;97381.51;105962;1253;63845;-59
2023/11/27 12:38:05;;;;;;;34.50;17.50;;;;;;;1.69;49.26;97392.66;105614;1253;60761;-61
2023/11/27 12:40:36;;;;;;;27.90;13.50;;;;;;;1.76;48.78;97389.77;105928;1253;72589;-59
2023/11/27 12:43:07;;;;;;;14.40;12.70;;;;;;;1.59;49.27;97398.01;105706;1257;69044;-59
2023/11/27 12:45:35;;;;;;;12.10;10.80;;;;;;;1.63;49.27;97394.99;105926;1256;71416;-60
2023/11/27 12:48:08;;;;;;;11.30;8.40;;;;;;;1.96;48.33;97410.19;105845;1252;62344;-61
2023/11/27 12:50:39;;;;;;;9.30;7.80;;;;;;;2.03;48.05;97411.19;105970;1253;61163;-61
2023/11/27 12:53:07;;;;;;;17.90;9.10;;;;;;;1.81;48.44;97422.26;105684;1253;73783;-62
2023/11/27 12:55:38;;;;;;;23.80;9.60;;;;;;;1.84;48.45;97423.04;105887;1253;69085;-62
2023/11/27 12:58:10;;;;;;;14.00;9.60;;;;;;;2.03;47.94;97430.71;105742;1253;71307;-61
2023/11/27 13:00:43;;;;;;;13.70;8.50;;;;;;;1.76;48.46;97426.64;105895;1253;60422;-64
2023/11/27 13:03:13;;;;;;;26.50;9.60;;;;;;;1.47;49.03;97434.10;105960;1253;60464;-60
2023/11/27 13:05:44;;;;;;;10.80;8.30;;;;;;;1.60;48.89;97438.11;105958;1256;73893;-62
2023/11/27 13:08:11;;;;;;;9.50;8.40;;;;;;;1.65;48.79;97445.73;105687;1260;68841;-59
2023/11/27 13:10:47;;;;;;;13.80;8.30;;;;;;;1.87;48.26;97443.58;105897;1255;74108;-60
2023/11/27 13:13:21;;;;;;;16.90;8.40;;;;;;;1.90;48.06;97456.05;105882;1253;61418;-59
2023/11/27 13:15:49;;;;;;;21.10;9.50;;;;;;;1.67;49.17;97464.26;105895;1253;60543;-59
2023/11/27 13:18:16;;;;;;;10.80;8.90;;;;;;;1.69;48.88;97464.52;105383;1260;74544;-58
2023/11/27 13:20:53;;;;;;;14.50;8.90;;;;;;;2.06;48.12;97467.11;105872;1253;68687;-59
2023/11/27 13:23:25;;;;;;;10.60;7.80;;;;;;;1.99;48.06;97471.23;105640;1256;73495;-60
2023/11/27 13:25:54;;;;;;;15.50;11.00;;;;;;;1.79;48.21;97458.70;105570;1253;62011;-59
2023/11/27 13:28:21;;;;;;;10.70;7.70;;;;;;;1.48;49.16;97468.59;105410;1253;60468;-60
2023/11/27 13:30:51;;;;;;;8.90;8.00;;;;;;;1.35;49.45;97472.91;105862;1255;74345;-63
2023/11/27 13:33:18;;;;;;;9.10;7.70;;;;;;;1.35;49.72;97486.03;105730;1253;69181;-60
2023/11/27 13:35:45;;;;;;;11.50;8.60;;;;;;;0.97;50.47;97471.88;105941;1255;71606;-59
2023/11/27 13:38:17;;;;;;;17.00;9.30;;;;;;;1.18;50.33;97481.98;105881;1253;61909;-58
2023/11/27 13:40:48;;;;;;;9.70;8.70;;;;;;;1.05;50.56;97485.73;105947;1253;60421;-58
2023/11/27 13:43:17;;;;;;;12.30;8.40;;;;;;;0.78;51.86;97496.73;105909;1253;72500;-59
2023/11/27 13:45:47;;;;;;;13.30;9.10;;;;;;;0.53;53.09;97499.94;105381;1253;68536;-58
2023/11/27 13:48:14;;;;;;;12.40;9.20;;;;;;;0.59;52.84;97498.88;105923;1253;70976;-58
2023/11/27 13:50:43;;;;;;;16.10;9.30;;;;;;;0.55;52.75;97496.80;105870;1253;63466;-59
2023/11/27 13:53:24;;;;;;;11.40;8.60;;;;;;;0.61;52.59;97505.18;105932;1253;60723;-58
2023/11/27 13:56:02;;;;;;;12.80;8.90;;;;;;;0.72;52.13;97509.07;105543;1260;74000;-61
2023/11/27 13:58:31;;;;;;;;;;;;;;;0.44;53.01;97513.36;105775;1253;68819;-60